Time;durP1;ratioP1;P1;durP2;ratioP2;P2;SDS_P1;SDS_P2;PMS_P1;PMS_P2;Temp;Humidity;BMP_temperature;BMP_pressure;BME280_temperature;BME280_humidity;BME280_pressure;Samples;Min_cycle;Max_cycle;Signal;HPM_P1;HPM_P2
2023/01/31 00:00:11;;;;;;;0.95;0.95;;;;;;;;;;6273715;28;20530;-81
2023/01/31 00:03:11;;;;;;;0.83;0.83;;;;;;;;;;6297422;28;20024;-80
2023/01/31 00:06:16;;;;;;;0.23;0.23;;;;;;;;;;6277930;28;20104;-80
2023/01/31 00:09:17;;;;;;;0.32;0.32;;;;;;;;;;6287761;28;20037;-80
2023/01/31 00:12:17;;;;;;;1.60;1.60;;;;;;;;;;6288628;28;20365;-80
2023/01/31 00:15:17;;;;;;;1.08;1.08;;;;;;;;;;6284714;28;20009;-80
2023/01/31 00:18:17;;;;;;;0.47;0.47;;;;;;;;;;6261294;28;20052;-80
2023/01/31 00:21:19;;;;;;;0.80;0.80;;;;;;;;;;6283691;28;20044;-81
2023/01/31 00:24:19;;;;;;;0.57;0.57;;;;;;;;;;6268171;28;20369;-80
2023/01/31 00:27:19;;;;;;;0.75;0.75;;;;;;;;;;6289893;28;20070;-80
2023/01/31 00:30:19;;;;;;;2.70;2.58;;;;;;;;;;6282288;28;20107;-80
2023/01/31 00:33:19;;;;;;;1.20;1.20;;;;;;;;;;6311458;28;20396;-80
2023/01/31 00:36:21;;;;;;;1.15;1.13;;;;;;;;;;6321860;28;20037;-80
2023/01/31 00:39:21;;;;;;;1.10;1.10;;;;;;;;;;6322494;28;20020;-79
2023/01/31 00:42:22;;;;;;;3.97;2.57;;;;;;;;;;6323110;28;20129;-79
2023/01/31 00:45:22;;;;;;;0.87;0.87;;;;;;;;;;6314426;28;20055;-80
2023/01/31 00:48:22;;;;;;;0.30;0.30;;;;;;;;;;6308271;28;20062;-80
2023/01/31 00:51:23;;;;;;;6.37;2.13;;;;;;;;;;6313627;28;20020;-80
2023/01/31 00:54:23;;;;;;;0.30;0.30;;;;;;;;;;6306395;28;20020;-80
2023/01/31 00:57:23;;;;;;;0.20;0.20;;;;;;;;;;6314489;28;20023;-80
2023/01/31 01:00:24;;;;;;;0.30;0.30;;;;;;;;;;6316761;28;20019;-80
2023/01/31 01:03:24;;;;;;;1.27;1.17;;;;;;;;;;6311467;28;20031;-80
2023/01/31 01:06:24;;;;;;;0.20;0.20;;;;;;;;;;6310505;28;20018;-82
2023/01/31 01:09:24;;;;;;;0.90;0.90;;;;;;;;;;6311278;28;20027;-81
2023/01/31 01:12:25;;;;;;;1.53;1.43;;;;;;;;;;6311719;28;20020;-81
2023/01/31 01:15:25;;;;;;;0.77;0.77;;;;;;;;;;6305838;28;20016;-81
2023/01/31 01:18:25;;;;;;;0.67;0.67;;;;;;;;;;6315392;28;20051;-81
2023/01/31 01:21:27;;;;;;;2.43;2.10;;;;;;;;;;6312899;28;20012;-81
2023/01/31 01:24:27;;;;;;;0.85;0.85;;;;;;;;;;6322668;28;20016;-81
2023/01/31 01:27:28;;;;;;;8.70;2.27;;;;;;;;;;6321981;28;20023;-81
2023/01/31 01:30:28;;;;;;;0.30;0.30;;;;;;;;;;6321273;28;20032;-80
2023/01/31 01:33:29;;;;;;;0.40;0.40;;;;;;;;;;6320942;28;20134;-81
2023/01/31 01:36:32;;;;;;;1.20;1.20;;;;;;;;;;6310745;28;20412;-81
2023/01/31 01:39:32;;;;;;;2.95;2.78;;;;;;;;;;6314020;28;20111;-81
2023/01/31 01:42:34;;;;;;;0.30;0.30;;;;;;;;;;6310854;28;20016;-81
2023/01/31 01:45:34;;;;;;;;;;;;;;;;;;6322572;28;20040;-81
2023/01/31 01:48:35;;;;;;;10.20;2.38;;;;;;;;;;6319518;28;19957;-80
2023/01/31 01:51:36;;;;;;;0.30;0.30;;;;;;;;;;6319282;28;20035;-80
2023/01/31 01:54:41;;;;;;;1.42;1.42;;;;;;;;;;6311432;28;20020;-81
2023/01/31 01:57:42;;;;;;;1.15;1.15;;;;;;;;;;6309497;28;20016;-81
2023/01/31 02:00:44;;;;;;;32.63;2.90;;;;;;;;;;6314011;28;20040;-80
2023/01/31 02:03:45;;;;;;;1.10;0.77;;;;;;;;;;6320435;28;20012;-80
2023/01/31 02:06:45;;;;;;;1.70;1.65;;;;;;;;;;6319344;28;20040;-80
2023/01/31 02:09:50;;;;;;;0.47;0.47;;;;;;;;;;6320252;28;20012;-80
2023/01/31 02:12:50;;;;;;;0.95;0.95;;;;;;;;;;6321081;28;20016;-80
2023/01/31 02:15:50;;;;;;;0.50;0.50;;;;;;;;;;6312063;28;20066;-80
2023/01/31 02:18:51;;;;;;;1.07;1.07;;;;;;;;;;6319257;28;20467;-80
2023/01/31 02:22:08;;;;;;;0.33;0.33;;;;;;;;;;6317858;28;20034;-80
2023/01/31 02:25:21;;;;;;;6.78;1.58;;;;;;;;;;6318138;28;20082;-80
2023/01/31 02:28:21;;;;;;;0.20;0.20;;;;;;;;;;6318980;28;20019;-80
2023/01/31 02:31:40;;;;;;;0.20;0.20;;;;;;;;;;6313781;28;20113;-80
2023/01/31 02:34:46;;;;;;;2.03;1.95;;;;;;;;;;6278411;28;20380;-80
2023/01/31 02:37:55;;;;;;;0.30;0.30;;;;;;;;;;6288210;28;20491;-81
2023/01/31 02:40:58;;;;;;;0.20;0.20;;;;;;;;;;6270148;28;20013;-80
2023/01/31 02:47:37;;;;;;;0.47;0.47;;;;;;;;;;6288910;28;20032;-79
2023/01/31 02:50:47;;;;;;;0.28;0.28;;;;;;;;;;6270015;28;20020;-79
2023/01/31 02:53:51;;;;;;;0.20;0.20;;;;;;;;;;6295474;28;20017;-80
2023/01/31 02:56:52;;;;;;;0.20;0.20;;;;;;;;;;6289597;28;20447;-79
2023/01/31 02:59:52;;;;;;;0.20;0.20;;;;;;;;;;6289395;28;20024;-80
2023/01/31 03:02:52;;;;;;;0.20;0.20;;;;;;;;;;6270880;28;20067;-80
2023/01/31 03:06:08;;;;;;;2.00;0.83;;;;;;;;;;6292785;28;20017;-80
2023/01/31 03:09:12;;;;;;;0.20;0.20;;;;;;;;;;6295442;28;20411;-80
2023/01/31 03:12:18;;;;;;;0.30;0.30;;;;;;;;;;6295290;28;20488;-80
2023/01/31 03:15:21;;;;;;;1.58;1.50;;;;;;;;;;6295733;28;20028;-81
2023/01/31 03:18:35;;;;;;;0.30;0.30;;;;;;;;;;6269876;28;20119;-81
2023/01/31 03:21:38;;;;;;;10.52;3.50;;;;;;;;;;6278608;28;20055;-81
2023/01/31 03:24:39;;;;;;;5.82;3.45;;;;;;;;;;6260160;28;20372;-80
2023/01/31 03:27:42;;;;;;;1.07;1.07;;;;;;;;;;6270828;28;20078;-81
2023/01/31 03:30:47;;;;;;;0.20;0.20;;;;;;;;;;6293617;28;20015;-81
2023/01/31 03:33:50;;;;;;;0.20;0.20;;;;;;;;;;6296863;28;20427;-81
2023/01/31 03:36:53;;;;;;;0.93;0.93;;;;;;;;;;6297242;28;20021;-81
2023/01/31 03:39:56;;;;;;;0.30;0.30;;;;;;;;;;6295651;28;20593;-81
2023/01/31 03:43:01;;;;;;;0.30;0.30;;;;;;;;;;6295328;28;20488;-80
2023/01/31 03:46:08;;;;;;;0.20;0.20;;;;;;;;;;6274635;28;20029;-80
2023/01/31 03:49:11;;;;;;;0.30;0.30;;;;;;;;;;6293015;28;20033;-81
2023/01/31 03:52:12;;;;;;;0.75;0.75;;;;;;;;;;6288531;28;20043;-81
2023/01/31 03:55:18;;;;;;;0.20;0.20;;;;;;;;;;6297394;28;20123;-81
2023/01/31 03:58:20;;;;;;;2.83;2.28;;;;;;;;;;6297625;28;20384;-81
2023/01/31 04:01:21;;;;;;;0.30;0.30;;;;;;;;;;6299289;28;20024;-80
2023/01/31 04:04:24;;;;;;;0.30;0.30;;;;;;;;;;6295109;28;20021;-81
2023/01/31 04:07:24;;;;;;;0.43;0.43;;;;;;;;;;6293478;28;20031;-80
2023/01/31 04:10:25;;;;;;;1.13;1.13;;;;;;;;;;6277408;28;20013;-80
2023/01/31 04:13:25;;;;;;;5.43;4.90;;;;;;;;;;6295359;28;20435;-80
2023/01/31 04:16:25;;;;;;;0.20;0.20;;;;;;;;;;6290548;28;20013;-80
2023/01/31 04:19:25;;;;;;;0.70;0.70;;;;;;;;;;6295670;28;20353;-80
2023/01/31 04:22:26;;;;;;;2.13;1.93;;;;;;;;;;6298048;28;20021;-80
2023/01/31 04:25:26;;;;;;;0.40;0.40;;;;;;;;;;6297182;28;20074;-80
2023/01/31 04:28:26;;;;;;;0.20;0.20;;;;;;;;;;6280462;28;20020;-79
2023/01/31 04:31:26;;;;;;;0.40;0.40;;;;;;;;;;6297204;28;20043;-79
2023/01/31 04:34:27;;;;;;;0.60;0.60;;;;;;;;;;6280123;28;20032;-79
2023/01/31 04:37:27;;;;;;;0.30;0.30;;;;;;;;;;6274868;28;20052;-80
2023/01/31 04:40:27;;;;;;;6.38;4.00;;;;;;;;;;6295398;28;20031;-80
2023/01/31 04:43:27;;;;;;;0.30;0.30;;;;;;;;;;6296705;28;20016;-80
2023/01/31 04:46:29;;;;;;;0.73;0.73;;;;;;;;;;6297811;28;20012;-78
2023/01/31 04:49:29;;;;;;;2.30;2.20;;;;;;;;;;6280431;28;20016;-79
2023/01/31 04:52:29;;;;;;;2.90;2.63;;;;;;;;;;6291034;28;20036;-79
2023/01/31 04:55:30;;;;;;;0.57;0.57;;;;;;;;;;6277451;28;20016;-79
2023/01/31 04:58:30;;;;;;;0.73;0.73;;;;;;;;;;6280006;28;20028;-79
2023/01/31 05:01:30;;;;;;;24.60;3.20;;;;;;;;;;6288658;28;20027;-78
2023/01/31 05:04:30;;;;;;;0.40;0.40;;;;;;;;;;6280008;28;20116;-78
2023/01/31 05:07:30;;;;;;;0.80;0.77;;;;;;;;;;6293470;28;20574;-79
2023/01/31 05:10:31;;;;;;;1.10;1.10;;;;;;;;;;6274157;28;20020;-79
2023/01/31 05:13:32;;;;;;;2.67;2.47;;;;;;;;;;6292781;28;20063;-79
2023/01/31 05:16:32;;;;;;;0.30;0.30;;;;;;;;;;6273879;28;20052;-79
2023/01/31 05:19:32;;;;;;;1.07;1.07;;;;;;;;;;6294153;28;20282;-79
2023/01/31 05:22:33;;;;;;;0.40;0.40;;;;;;;;;;6280124;28;20017;-79
2023/01/31 05:25:34;;;;;;;0.50;0.50;;;;;;;;;;6281567;28;20019;-80
2023/01/31 05:28:34;;;;;;;1.00;1.00;;;;;;;;;;6291473;28;20040;-79
2023/01/31 05:31:34;;;;;;;0.50;0.50;;;;;;;;;;6290620;28;20322;-79
2023/01/31 05:34:34;;;;;;;0.50;0.50;;;;;;;;;;6294295;28;20472;-78
2023/01/31 05:37:35;;;;;;;1.63;1.53;;;;;;;;;;6298312;28;20029;-78
2023/01/31 05:40:35;;;;;;;0.30;0.30;;;;;;;;;;6279868;28;20033;-78
2023/01/31 05:43:35;;;;;;;1.33;1.33;;;;;;;;;;6297040;28;20019;-78
2023/01/31 05:46:35;;;;;;;0.85;0.85;;;;;;;;;;6283225;28;20036;-78
2023/01/31 05:49:35;;;;;;;0.93;0.93;;;;;;;;;;6281567;28;20081;-78
2023/01/31 05:52:35;;;;;;;0.40;0.40;;;;;;;;;;6276708;28;20074;-78
2023/01/31 05:55:36;;;;;;;0.22;0.22;;;;;;;;;;6279884;28;20023;-78
2023/01/31 05:58:36;;;;;;;2.07;1.97;;;;;;;;;;6282276;28;20029;-78
2023/01/31 06:01:36;;;;;;;8.07;3.83;;;;;;;;;;6278734;28;20066;-79
2023/01/31 06:04:37;;;;;;;2.50;1.23;;;;;;;;;;6296577;28;20024;-78
2023/01/31 06:07:37;;;;;;;1.80;1.70;;;;;;;;;;6270379;28;20111;-78
2023/01/31 06:10:37;;;;;;;2.10;2.00;;;;;;;;;;6275919;28;20024;-79
2023/01/31 06:13:38;;;;;;;0.30;0.30;;;;;;;;;;6292488;28;20016;-79
2023/01/31 06:16:38;;;;;;;0.30;0.30;;;;;;;;;;6273780;28;20149;-78
2023/01/31 06:19:38;;;;;;;1.87;1.77;;;;;;;;;;6286994;28;20468;-79
2023/01/31 06:22:40;;;;;;;0.30;0.30;;;;;;;;;;6278399;28;20051;-79
2023/01/31 06:25:40;;;;;;;1.02;1.02;;;;;;;;;;6277349;28;20115;-78
2023/01/31 06:28:40;;;;;;;1.17;1.07;;;;;;;;;;6289192;28;20028;-79
2023/01/31 06:31:44;;;;;;;8.80;5.23;;;;;;;;;;6270626;28;20052;-79
2023/01/31 06:34:44;;;;;;;1.02;1.02;;;;;;;;;;6280238;28;20035;-78
2023/01/31 06:37:44;;;;;;;1.97;1.90;;;;;;;;;;6280618;28;20021;-78
2023/01/31 06:40:44;;;;;;;0.67;0.67;;;;;;;;;;6296554;28;20032;-78
2023/01/31 06:43:44;;;;;;;1.13;1.13;;;;;;;;;;6276943;28;20040;-79
2023/01/31 06:46:45;;;;;;;3.73;2.53;;;;;;;;;;6292471;28;20317;-79
2023/01/31 06:49:45;;;;;;;5.15;3.97;;;;;;;;;;6288663;28;20033;-79
2023/01/31 06:52:45;;;;;;;0.70;0.70;;;;;;;;;;6267403;28;20029;-79
2023/01/31 06:55:46;;;;;;;1.63;1.37;;;;;;;;;;6282233;28;20024;-79
2023/01/31 06:58:46;;;;;;;20.63;3.60;;;;;;;;;;6272727;28;20109;-79
2023/01/31 07:01:46;;;;;;;0.20;0.20;;;;;;;;;;6280357;28;20017;-79
2023/01/31 07:04:46;;;;;;;18.03;2.63;;;;;;;;;;6288032;28;20017;-78
2023/01/31 07:07:48;;;;;;;1.35;1.13;;;;;;;;;;6264589;28;20012;-79
2023/01/31 07:10:48;;;;;;;16.05;3.38;;;;;;;;;;6259261;28;20021;-79
2023/01/31 07:13:49;;;;;;;0.27;0.27;;;;;;;;;;6276380;28;20514;-79
2023/01/31 07:16:49;;;;;;;0.30;0.30;;;;;;;;;;6279335;28;20040;-78
2023/01/31 07:19:49;;;;;;;1.75;1.65;;;;;;;;;;6284303;28;20104;-78
2023/01/31 07:22:53;;;;;;;0.30;0.30;;;;;;;;;;6276517;28;20010;-78
2023/01/31 07:25:53;;;;;;;0.73;0.73;;;;;;;;;;6279363;28;20027;-79
2023/01/31 07:28:53;;;;;;;0.93;0.80;;;;;;;;;;6261878;28;20029;-79
2023/01/31 07:31:53;;;;;;;7.03;3.30;;;;;;;;;;6279960;28;20048;-79
2023/01/31 07:34:54;;;;;;;0.30;0.30;;;;;;;;;;6283824;28;20039;-79
2023/01/31 07:37:54;;;;;;;4.18;3.25;;;;;;;;;;6290814;28;20481;-79
2023/01/31 07:40:57;;;;;;;0.50;0.50;;;;;;;;;;6291620;28;20024;-79
2023/01/31 07:43:57;;;;;;;1.65;1.55;;;;;;;;;;6270313;28;20460;-79
2023/01/31 07:46:57;;;;;;;1.47;1.47;;;;;;;;;;6275918;28;20036;-79
2023/01/31 07:49:57;;;;;;;0.55;0.55;;;;;;;;;;6272027;28;20055;-79
2023/01/31 07:52:58;;;;;;;2.10;1.97;;;;;;;;;;6291855;28;20495;-79
2023/01/31 07:56:09;;;;;;;1.83;1.73;;;;;;;;;;6275535;28;20032;-79
2023/01/31 07:59:09;;;;;;;1.45;1.38;;;;;;;;;;6296566;28;20033;-79
2023/01/31 08:05:30;;;;;;;4.03;1.75;;;;;;;;;;6295733;28;20028;-79
2023/01/31 08:08:30;;;;;;;0.87;0.87;;;;;;;;;;6288779;28;20031;-79
2023/01/31 08:11:30;;;;;;;0.53;0.53;;;;;;;;;;6283296;28;20028;-79
2023/01/31 08:14:31;;;;;;;2.00;1.90;;;;;;;;;;6284470;28;20081;-79
2023/01/31 08:17:31;;;;;;;0.20;0.20;;;;;;;;;;6281826;28;20047;-79
2023/01/31 08:20:32;;;;;;;4.45;4.15;;;;;;;;;;6297418;28;20025;-79
2023/01/31 08:23:33;;;;;;;0.37;0.37;;;;;;;;;;6293357;28;20020;-79
2023/01/31 08:26:33;;;;;;;2.37;2.27;;;;;;;;;;6287606;28;20020;-79
2023/01/31 08:29:33;;;;;;;3.97;3.70;;;;;;;;;;6282739;28;20024;-79
2023/01/31 08:32:33;;;;;;;2.00;1.90;;;;;;;;;;6287857;28;20040;-79
2023/01/31 08:35:34;;;;;;;1.23;1.17;;;;;;;;;;6286608;28;20031;-79
2023/01/31 08:38:34;;;;;;;0.43;0.43;;;;;;;;;;6274143;28;20071;-78
2023/01/31 08:41:35;;;;;;;1.50;1.43;;;;;;;;;;6288258;28;20031;-79
2023/01/31 08:44:37;;;;;;;0.82;0.82;;;;;;;;;;6293036;28;20028;-79
2023/01/31 08:47:37;;;;;;;0.52;0.52;;;;;;;;;;6294590;28;20027;-79
2023/01/31 08:50:37;;;;;;;0.40;0.40;;;;;;;;;;6286119;28;20021;-79
2023/01/31 08:53:39;;;;;;;0.30;0.30;;;;;;;;;;6284630;28;20021;-79
2023/01/31 08:56:39;;;;;;;0.82;0.82;;;;;;;;;;6290887;28;20484;-79
2023/01/31 08:59:39;;;;;;;2.50;2.30;;;;;;;;;;6280374;28;20022;-79
2023/01/31 09:02:40;;;;;;;3.15;3.03;;;;;;;;;;6283488;28;20009;-79
2023/01/31 09:05:40;;;;;;;0.27;0.27;;;;;;;;;;6295690;28;20020;-79
2023/01/31 09:08:40;;;;;;;0.52;0.52;;;;;;;;;;6284557;28;20025;-79
2023/01/31 09:11:40;;;;;;;1.85;1.75;;;;;;;;;;6283126;28;20009;-79
2023/01/31 09:14:40;;;;;;;2.05;1.95;;;;;;;;;;6292318;28;20025;-79
2023/01/31 09:17:42;;;;;;;2.60;1.50;;;;;;;;;;6296347;28;20020;-79
2023/01/31 09:20:42;;;;;;;16.95;3.35;;;;;;;;;;6292682;28;20484;-79
2023/01/31 09:23:42;;;;;;;4.20;2.20;;;;;;;;;;6296634;28;20019;-79
2023/01/31 09:26:43;;;;;;;0.90;0.90;;;;;;;;;;6297193;28;20021;-79
2023/01/31 09:29:43;;;;;;;1.23;1.20;;;;;;;;;;6296760;28;20158;-79
2023/01/31 09:32:44;;;;;;;2.38;2.28;;;;;;;;;;6297382;28;20046;-79
2023/01/31 09:35:58;;;;;;;1.08;1.08;;;;;;;;;;6312965;28;20054;-79
2023/01/31 09:38:58;;;;;;;2.15;1.65;;;;;;;;;;6307008;28;20047;-79
2023/01/31 09:42:18;;;;;;;4.23;2.60;;;;;;;;;;6311548;28;20433;-79
2023/01/31 09:45:27;;;;;;;1.67;1.58;;;;;;;;;;6318675;28;20122;-79
2023/01/31 09:48:29;;;;;;;0.30;0.30;;;;;;;;;;6316451;28;20027;-79
2023/01/31 09:51:29;;;;;;;0.50;0.50;;;;;;;;;;6313755;28;20523;-79
2023/01/31 09:54:35;;;;;;;3.57;2.53;;;;;;;;;;6311522;28;20080;-80
2023/01/31 09:57:35;;;;;;;2.60;2.40;;;;;;;;;;6303665;28;20028;-79
2023/01/31 10:00:42;;;;;;;0.40;0.40;;;;;;;;;;6310150;28;20089;-79
2023/01/31 10:04:12;;;;;;;0.45;0.45;;;;;;;;;;6308779;28;20013;-80
2023/01/31 10:07:15;;;;;;;0.73;0.73;;;;;;;;;;6298543;28;20130;-80
2023/01/31 10:10:37;;;;;;;5.55;4.53;;;;;;;;;;6307184;28;20099;-79
2023/01/31 10:13:50;;;;;;;1.02;1.02;;;;;;;;;;6313045;28;20460;-80
2023/01/31 10:16:57;;;;;;;2.15;2.05;;;;;;;;;;6305890;28;20019;-80
2023/01/31 10:20:06;;;;;;;0.68;0.68;;;;;;;;;;6304210;28;20024;-80
2023/01/31 10:23:12;;;;;;;1.98;1.88;;;;;;;;;;6314145;28;20024;-79
2023/01/31 10:26:15;;;;;;;15.43;8.93;;;;;;;;;;6316299;28;20028;-79
2023/01/31 10:29:20;;;;;;;6.22;4.45;;;;;;;;;;6314897;28;20031;-80
2023/01/31 10:32:26;;;;;;;1.95;1.85;;;;;;;;;;6302758;28;20048;-80
2023/01/31 10:35:29;;;;;;;5.07;3.30;;;;;;;;;;6294587;28;20019;-79
2023/01/31 10:38:33;;;;;;;2.22;1.45;;;;;;;;;;6277007;28;20033;-79
2023/01/31 10:41:46;;;;;;;1.25;1.25;;;;;;;;;;6289779;28;20021;-80
2023/01/31 10:44:49;;;;;;;1.40;1.33;;;;;;;;;;6295544;28;20021;-79
2023/01/31 10:47:51;;;;;;;0.40;0.40;;;;;;;;;;6277918;28;20024;-79
2023/01/31 10:51:09;;;;;;;4.40;4.00;;;;;;;;;;6278092;28;20541;-79
2023/01/31 10:54:12;;;;;;;1.08;1.08;;;;;;;;;;6294232;28;20029;-79
2023/01/31 10:57:13;;;;;;;4.97;2.70;;;;;;;;;;6294404;28;20063;-79
2023/01/31 11:00:17;;;;;;;0.30;0.30;;;;;;;;;;6295412;28;20020;-79
2023/01/31 11:03:18;;;;;;;4.22;2.08;;;;;;;;;;6282276;28;20021;-79
2023/01/31 11:06:18;;;;;;;1.77;1.70;;;;;;;;;;6294664;28;20028;-79
2023/01/31 11:09:20;;;;;;;0.47;0.47;;;;;;;;;;6288949;28;20021;-79
2023/01/31 11:12:37;;;;;;;1.52;1.50;;;;;;;;;;6289817;28;20468;-79
2023/01/31 11:15:39;;;;;;;0.22;0.22;;;;;;;;;;6276080;28;20024;-79
2023/01/31 11:18:39;;;;;;;;;;;;;;;;;;6294690;28;20039;-79
2023/01/31 11:21:39;;;;;;;0.30;0.30;;;;;;;;;;6295650;28;19908;-79
2023/01/31 11:24:40;;;;;;;2.47;2.37;;;;;;;;;;6290052;28;20376;-79
2023/01/31 11:27:41;;;;;;;0.43;0.43;;;;;;;;;;6289574;28;20465;-79
2023/01/31 11:30:46;;;;;;;0.82;0.82;;;;;;;;;;6276495;28;20215;-79
2023/01/31 11:33:55;;;;;;;3.83;2.75;;;;;;;;;;6314590;28;20060;-78
2023/01/31 11:37:22;;;;;;;0.90;0.88;;;;;;;;;;6318908;28;20027;-78
2023/01/31 11:40:33;;;;;;;0.40;0.40;;;;;;;;;;6310071;28;20123;-79
2023/01/31 11:43:33;;;;;;;1.05;1.05;;;;;;;;;;6318271;28;20070;-79
2023/01/31 11:47:02;;;;;;;2.72;1.90;;;;;;;;;;6315350;28;20353;-79
2023/01/31 11:50:03;;;;;;;1.75;1.75;;;;;;;;;;6316692;28;20043;-79
2023/01/31 11:53:13;;;;;;;0.80;0.80;;;;;;;;;;6315679;28;20110;-79
2023/01/31 11:56:13;;;;;;;1.45;1.35;;;;;;;;;;6312384;28;20052;-79
2023/01/31 11:59:16;;;;;;;10.60;3.90;;;;;;;;;;6307759;28;20028;-78
2023/01/31 12:02:43;;;;;;;3.35;3.13;;;;;;;;;;6320054;28;20391;-79
2023/01/31 12:05:45;;;;;;;6.90;3.40;;;;;;;;;;6310202;28;20028;-79
2023/01/31 12:08:45;;;;;;;;;;;;;;;;;;6310948;28;20020;-80
2023/01/31 12:11:52;;;;;;;4.07;3.00;;;;;;;;;;6310825;28;19904;-79
2023/01/31 12:14:54;;;;;;;15.07;5.70;;;;;;;;;;6317559;28;20472;-79
2023/01/31 12:17:55;;;;;;;5.93;4.32;;;;;;;;;;6323167;28;20065;-79
2023/01/31 12:21:09;;;;;;;3.43;3.10;;;;;;;;;;6322808;28;20027;-79
2023/01/31 12:24:21;;;;;;;1.02;0.95;;;;;;;;;;6323837;28;20016;-79
2023/01/31 12:27:39;;;;;;;12.40;2.47;;;;;;;;;;6318346;28;20012;-79
2023/01/31 12:30:45;;;;;;;2.85;2.70;;;;;;;;;;6316206;28;20085;-79
2023/01/31 12:33:52;;;;;;;4.40;1.65;;;;;;;;;;6297213;28;20049;-79
2023/01/31 12:36:55;;;;;;;1.85;1.75;;;;;;;;;;6274281;28;20117;-79
2023/01/31 12:40:07;;;;;;;1.45;1.35;;;;;;;;;;6268425;28;20032;-79
2023/01/31 12:43:21;;;;;;;2.13;1.85;;;;;;;;;;6267166;28;20062;-79
2023/01/31 12:46:32;;;;;;;0.40;0.40;;;;;;;;;;6292855;28;20106;-79
2023/01/31 12:49:42;;;;;;;0.50;0.50;;;;;;;;;;6270250;28;20030;-79
2023/01/31 12:53:02;;;;;;;4.10;1.48;;;;;;;;;;6297625;28;20024;-79
2023/01/31 12:56:13;;;;;;;1.88;1.35;;;;;;;;;;6296139;28;20466;-79
2023/01/31 12:59:19;;;;;;;0.30;0.30;;;;;;;;;;6297861;28;20032;-79
2023/01/31 13:02:29;;;;;;;1.05;1.05;;;;;;;;;;6273436;28;20120;-79
2023/01/31 13:05:35;;;;;;;4.10;3.80;;;;;;;;;;6294960;28;20025;-78
2023/01/31 13:08:36;;;;;;;2.17;2.08;;;;;;;;;;6287476;28;20017;-77
2023/01/31 13:11:43;;;;;;;1.97;1.40;;;;;;;;;;6292451;28;20043;-79
2023/01/31 13:14:46;;;;;;;9.10;2.17;;;;;;;;;;6278313;28;20016;-77
2023/01/31 13:17:50;;;;;;;1.80;1.70;;;;;;;;;;6290022;28;20119;-77
2023/01/31 13:21:00;;;;;;;0.43;0.43;;;;;;;;;;6278779;28;20508;-77
2023/01/31 13:24:16;;;;;;;0.57;0.57;;;;;;;;;;6288210;28;20109;-78
2023/01/31 13:27:26;;;;;;;3.13;2.92;;;;;;;;;;6271254;28;20029;-78
2023/01/31 13:30:34;;;;;;;1.05;1.05;;;;;;;;;;6293102;28;20099;-77
2023/01/31 13:33:36;;;;;;;2.00;1.88;;;;;;;;;;6300329;28;20040;-77
2023/01/31 13:36:47;;;;;;;0.20;0.20;;;;;;;;;;6293622;28;20029;-77
2023/01/31 13:39:57;;;;;;;2.42;2.33;;;;;;;;;;6291171;28;20079;-78
2023/01/31 13:42:59;;;;;;;0.30;0.30;;;;;;;;;;6279938;28;20029;-78
2023/01/31 13:56:47;;;;;;;0.82;0.82;;;;;;;;;;7755135;22;1246871;-93
2023/01/31 13:59:52;;;;;;;2.70;2.58;;;;;;;;;;7775542;22;20014;-93
2023/01/31 14:03:02;;;;;;;0.85;0.85;;;;;;;;;;7800829;22;20074;-93
2023/01/31 14:06:03;;;;;;;1.42;0.93;;;;;;;;;;7773189;22;20332;-93
2023/01/31 14:09:21;;;;;;;1.97;1.87;;;;;;;;;;7776414;22;19999;-93
2023/01/31 14:12:49;;;;;;;1.95;1.85;;;;;;;;;;7775765;22;20078;-93
2023/01/31 14:15:50;;;;;;;6.07;5.72;;;;;;;;;;7774586;22;20507;-93
2023/01/31 14:18:53;;;;;;;3.43;2.63;;;;;;;;;;7775349;22;19995;-94
2023/01/31 14:22:12;;;;;;;4.93;2.58;;;;;;;;;;7801319;22;19996;-93
2023/01/31 14:25:13;;;;;;;1.42;1.33;;;;;;;;;;7775057;22;20057;-92
2023/01/31 14:28:14;;;;;;;5.60;5.13;;;;;;;;;;7773277;22;20002;-93
2023/01/31 14:31:18;;;;;;;0.67;0.67;;;;;;;;;;7772138;22;20000;-93
2023/01/31 14:34:20;;;;;;;0.90;0.90;;;;;;;;;;7773931;22;20474;-93
2023/01/31 14:37:41;;;;;;;8.68;4.38;;;;;;;;;;7801464;22;19995;-93
2023/01/31 14:41:00;;;;;;;2.03;1.65;;;;;;;;;;7774204;22;19995;-93
2023/01/31 14:44:06;;;;;;;2.25;2.15;;;;;;;;;;7776158;22;20023;-93
2023/01/31 14:47:10;;;;;;;1.63;1.63;;;;;;;;;;7774338;22;20315;-93
2023/01/31 14:50:18;;;;;;;4.45;4.00;;;;;;;;;;7775582;22;19995;-93
2023/01/31 14:53:34;;;;;;;12.85;5.72;;;;;;;;;;7774681;22;20477;-93
2023/01/31 14:56:52;;;;;;;1.30;1.23;;;;;;;;;;7768445;22;20019;-93
2023/01/31 14:59:52;;;;;;;7.38;4.22;;;;;;;;;;7765629;22;20122;-93
2023/01/31 15:02:59;;;;;;;8.80;7.93;;;;;;;;;;7767042;22;20358;-94
2023/01/31 15:06:11;;;;;;;2.88;2.67;;;;;;;;;;7767006;22;19999;-93
2023/01/31 15:09:14;;;;;;;4.88;4.28;;;;;;;;;;7766322;22;20018;-93
2023/01/31 15:12:33;;;;;;;9.90;5.65;;;;;;;;;;7766308;22;20006;-93
2023/01/31 15:15:38;;;;;;;5.25;3.63;;;;;;;;;;7792776;22;19996;-93
2023/01/31 15:18:39;;;;;;;1.90;1.80;;;;;;;;;;7766803;22;19995;-93
2023/01/31 15:21:49;;;;;;;2.10;2.00;;;;;;;;;;7766582;22;19995;-93
2023/01/31 15:24:51;;;;;;;3.63;3.42;;;;;;;;;;7765754;22;20000;-93
2023/01/31 15:27:53;;;;;;;3.30;3.10;;;;;;;;;;7794105;22;20071;-93
2023/01/31 15:30:56;;;;;;;7.35;4.53;;;;;;;;;;7765931;22;20042;-93
2023/01/31 15:33:58;;;;;;;4.22;3.83;;;;;;;;;;7765825;22;20019;-92
2023/01/31 15:37:07;;;;;;;2.35;2.25;;;;;;;;;;7765126;22;20018;-93
2023/01/31 15:40:16;;;;;;;5.82;5.43;;;;;;;;;;7766699;22;20049;-93
2023/01/31 15:43:21;;;;;;;8.60;4.50;;;;;;;;;;7766175;22;20639;-93
2023/01/31 15:46:23;;;;;;;5.13;3.25;;;;;;;;;;7767868;22;20034;-93
2023/01/31 15:49:40;;;;;;;4.07;3.78;;;;;;;;;;7767828;22;20071;-94
2023/01/31 15:52:40;;;;;;;8.85;3.95;;;;;;;;;;7766672;22;19995;-93
2023/01/31 15:55:42;;;;;;;3.20;2.97;;;;;;;;;;7797893;22;20020;-93
2023/01/31 15:58:43;;;;;;;;;;;;;;;;;;7769649;22;20007;-94
2023/01/31 16:01:48;;;;;;;3.90;3.65;;;;;;;;;;7797405;22;19903;-94
2023/01/31 16:04:49;;;;;;;6.60;5.05;;;;;;;;;;7777457;22;20010;-94
2023/01/31 16:07:49;;;;;;;4.43;4.13;;;;;;;;;;7779754;22;20500;-94
2023/01/31 16:10:51;;;;;;;4.93;3.20;;;;;;;;;;7772422;22;19992;-94
2023/01/31 16:13:53;;;;;;;3.22;3.03;;;;;;;;;;7744550;22;20364;-94
2023/01/31 16:16:53;;;;;;;;;;;;;;;;;;7775739;22;19999;-94
2023/01/31 16:19:57;;;;;;;0.82;0.82;;;;;;;;;;7806114;22;19899;-95
2023/01/31 16:22:57;;;;;;;3.63;3.42;;;;;;;;;;7774948;22;20015;-94
2023/01/31 16:25:57;;;;;;;6.50;4.97;;;;;;;;;;7777739;22;20000;-94
2023/01/31 16:28:59;;;;;;;0.83;0.83;;;;;;;;;;7784394;22;19992;-95
2023/01/31 16:32:07;;;;;;;0.85;0.85;;;;;;;;;;7787717;22;19992;-94
2023/01/31 16:35:18;;;;;;;2.67;2.50;;;;;;;;;;7788326;22;20002;-95
2023/01/31 16:38:23;;;;;;;4.10;3.72;;;;;;;;;;7789247;22;20003;-95
2023/01/31 16:41:36;;;;;;;2.92;2.72;;;;;;;;;;7758027;22;20007;-78
2023/01/31 16:44:40;;;;;;;5.00;4.57;;;;;;;;;;7687674;23;20087;-78
2023/01/31 16:47:45;;;;;;;2.00;1.85;;;;;;;;;;7714107;23;20401;-78
2023/01/31 16:50:46;;;;;;;6.55;6.00;;;;;;;;;;7687966;23;20511;-78
2023/01/31 16:54:06;;;;;;;8.43;3.97;;;;;;;;;;7686711;23;20007;-78
2023/01/31 16:57:06;;;;;;;0.75;0.75;;;;;;;;;;7687005;23;20086;-80
2023/01/31 17:00:27;;;;;;;5.60;5.20;;;;;;;;;;7687727;23;20000;-81
2023/01/31 17:03:29;;;;;;;6.45;5.45;;;;;;;;;;7712180;23;20074;-81
2023/01/31 17:06:30;;;;;;;2.67;2.58;;;;;;;;;;7685047;23;19993;-81
2023/01/31 17:09:30;;;;;;;0.60;0.60;;;;;;;;;;7686559;23;20398;-81
2023/01/31 17:12:32;;;;;;;5.77;4.83;;;;;;;;;;7686455;23;20047;-81
2023/01/31 17:15:32;;;;;;;;;;;;;;;;;;7684835;23;20000;-81
2023/01/31 17:18:34;;;;;;;1.92;1.85;;;;;;;;;;7710803;23;19904;-82
2023/01/31 17:21:38;;;;;;;1.67;1.50;;;;;;;;;;7683753;23;20322;-81
2023/01/31 17:24:38;;;;;;;6.05;5.70;;;;;;;;;;7711687;23;20005;-81
2023/01/31 17:27:38;;;;;;;1.10;1.10;;;;;;;;;;7684479;23;20011;-81
2023/01/31 17:30:43;;;;;;;2.43;2.33;;;;;;;;;;7684511;23;20046;-82
2023/01/31 17:33:43;;;;;;;4.00;3.80;;;;;;;;;;7687524;23;19996;-81
2023/01/31 17:36:44;;;;;;;5.27;4.97;;;;;;;;;;7687793;23;19996;-81
2023/01/31 17:39:44;;;;;;;7.13;6.27;;;;;;;;;;7713541;23;20067;-80
2023/01/31 17:42:44;;;;;;;23.87;7.23;;;;;;;;;;7715404;23;20008;-81
2023/01/31 17:45:45;;;;;;;4.93;4.60;;;;;;;;;;7689257;23;20132;-82
2023/01/31 17:48:45;;;;;;;11.63;7.47;;;;;;;;;;7715641;23;19996;-83
2023/01/31 17:51:45;;;;;;;3.43;3.23;;;;;;;;;;7714824;23;20012;-81
2023/01/31 17:54:45;;;;;;;5.87;5.33;;;;;;;;;;7689066;23;20412;-81
2023/01/31 17:57:46;;;;;;;7.60;5.23;;;;;;;;;;7689105;23;19997;-81
2023/01/31 18:00:46;;;;;;;5.73;5.07;;;;;;;;;;7688723;23;20005;-83
2023/01/31 18:03:47;;;;;;;14.07;6.40;;;;;;;;;;7689590;23;20024;-83
2023/01/31 18:06:48;;;;;;;3.08;2.83;;;;;;;;;;7715206;23;19996;-83
2023/01/31 18:09:49;;;;;;;2.70;2.60;;;;;;;;;;7689309;23;20066;-81
2023/01/31 18:12:49;;;;;;;2.37;2.27;;;;;;;;;;7689604;23;20079;-81
2023/01/31 18:15:49;;;;;;;5.00;2.57;;;;;;;;;;7716165;23;19992;-82
2023/01/31 18:18:50;;;;;;;3.40;3.20;;;;;;;;;;7688724;23;20027;-82
2023/01/31 18:21:50;;;;;;;3.30;3.13;;;;;;;;;;7688536;23;20005;-82
2023/01/31 18:24:51;;;;;;;2.07;1.97;;;;;;;;;;7690016;23;20000;-82
2023/01/31 18:27:51;;;;;;;0.80;0.80;;;;;;;;;;7689460;23;20330;-81
2023/01/31 18:30:51;;;;;;;5.73;3.70;;;;;;;;;;7716244;23;19996;-82
2023/01/31 18:33:51;;;;;;;7.23;3.13;;;;;;;;;;7691371;23;20444;-82
2023/01/31 18:36:52;;;;;;;3.10;2.90;;;;;;;;;;7717096;23;20425;-81